Time,TemperatureF,DewpointF,PressureIn,WindDirection,WindDirectionDegrees,WindSpeedMPH,WindSpeedGustMPH,Humidity,HourlyPrecipIn,Conditions,Clouds,dailyrainin,SoftwareType,DateUTC
2013-01-10 00:08:00,34.8,32.0,29.59,NNE,26,17.0,22.0,90,0.00,,,0.00,weatherlink.com 1.10,2013-01-10 07:08:00,
2013-01-10 00:23:00,34.9,32.0,29.59,North,10,11.0,18.0,88,0.00,,,0.00,weatherlink.com 1.10,2013-01-10 07:23:00,
2013-01-10 00:38:00,34.7,32.0,29.59,NNE,19,11.0,21.0,88,0.00,,,0.00,weatherlink.com 1.10,2013-01-10 07:38:00,
2013-01-10 00:53:00,34.3,32.0,29.59,NNE,24,13.0,15.0,90,0.00,,,0.00,weatherlink.com 1.10,2013-01-10 07:53:00,
2013-01-10 01:08:00,34.2,32.0,29.59,NE,38,11.0,18.0,90,0.00,,,0.00,weatherlink.com 1.10,2013-01-10 08:08:00,
2013-01-10 01:23:00,34.0,31.0,29.60,NNE,15,13.0,16.0,90,0.00,,,0.00,weatherlink.com 1.10,2013-01-10 08:23:00,
2013-01-10 01:38:00,33.8,32.0,29.60,North,5,10.0,14.0,91,0.01,,,0.01,weatherlink.com 1.10,2013-01-10 08:38:00,
2013-01-10 01:53:00,33.5,32.0,29.60,NE,40,8.0,14.0,92,0.01,,,0.01,weatherlink.com 1.10,2013-01-10 08:53:00,
2013-01-10 02:08:00,34.2,31.0,29.60,NNE,30,7.0,13.0,89,0.01,,,0.01,weatherlink.com 1.10,2013-01-10 09:08:00,
2013-01-10 02:23:00,33.9,31.0,29.61,NNE,23,7.0,10.0,90,0.01,,,0.01,weatherlink.com 1.10,2013-01-10 09:23:00,
2013-01-10 02:38:00,33.8,31.0,29.61,NNE,22,8.0,13.0,90,0.00,,,0.01,weatherlink.com 1.10,2013-01-10 09:38:00,
2013-01-10 02:53:00,34.0,31.0,29.61,NNE,20,10.0,12.0,90,0.00,,,0.01,weatherlink.com 1.10,2013-01-10 09:53:00,
2013-01-10 03:08:00,33.8,31.0,29.61,North,9,10.0,14.0,90,0.00,,,0.01,weatherlink.com 1.10,2013-01-10 10:08:00,
2013-01-10 03:23:00,33.4,31.0,29.61,NNE,14,8.0,12.0,92,0.00,,,0.01,weatherlink.com 1.10,2013-01-10 10:23:00,
2013-01-10 03:38:00,33.8,31.0,29.60,NNW,328,5.0,11.0,89,0.00,,,0.01,weatherlink.com 1.10,2013-01-10 10:38:00,
2013-01-10 03:53:00,33.9,31.0,29.60,NNW,331,4.0,10.0,89,0.00,,,0.01,weatherlink.com 1.10,2013-01-10 10:53:00,
2013-01-10 04:08:00,34.3,31.0,29.59,NE,49,5.0,10.0,87,0.00,,,0.01,weatherlink.com 1.10,2013-01-10 11:08:00,
2013-01-10 04:23:00,34.2,31.0,29.59,NE,37,7.0,10.0,87,0.00,,,0.01,weatherlink.com 1.10,2013-01-10 11:23:00,
2013-01-10 04:38:00,34.1,31.0,29.59,NE,43,5.0,9.0,87,0.00,,,0.01,weatherlink.com 1.10,2013-01-10 11:38:00,
2013-01-10 04:53:00,33.8,31.0,29.59,NE,34,5.0,6.0,88,0.00,,,0.01,weatherlink.com 1.10,2013-01-10 11:53:00,
2013-01-10 05:08:00,33.6,30.0,29.58,NNE,18,5.0,7.0,88,0.00,,,0.01,weatherlink.com 1.10,2013-01-10 12:08:00,
2013-01-10 05:23:00,33.4,31.0,29.58,NNW,327,0.0,5.0,90,0.00,,,0.01,weatherlink.com 1.10,2013-01-10 12:23:00,
2013-01-10 05:38:00,33.0,31.0,29.59,NW,306,0.0,1.0,93,0.00,,,0.01,weatherlink.com 1.10,2013-01-10 12:38:00,
2013-01-10 05:53:00,32.7,31.0,29.59,NNW,342,4.0,5.0,94,0.00,,,0.01,weatherlink.com 1.10,2013-01-10 12:53:00,
2013-01-10 06:08:00,32.5,31.0,29.59,North,9,4.0,7.0,95,0.00,,,0.01,weatherlink.com 1.10,2013-01-10 13:08:00,
2013-01-10 06:23:00,32.5,31.0,29.59,North,10,5.0,6.0,95,0.00,,,0.01,weatherlink.com 1.10,2013-01-10 13:23:00,
2013-01-10 06:38:00,32.4,31.0,29.58,NNE,15,5.0,8.0,93,0.00,,,0.01,weatherlink.com 1.10,2013-01-10 13:38:00,
2013-01-10 06:53:00,32.4,31.0,29.58,NNE,25,5.0,7.0,93,0.00,,,0.01,weatherlink.com 1.10,2013-01-10 13:53:00,
2013-01-10 07:08:00,32.6,31.0,29.58,NNE,17,7.0,9.0,92,0.00,,,0.01,weatherlink.com 1.10,2013-01-10 14:08:00,
2013-01-10 07:23:00,32.6,31.0,29.59,North,5,6.0,10.0,92,0.00,,,0.01,weatherlink.com 1.10,2013-01-10 14:23:00,
2013-01-10 07:38:00,32.4,30.0,29.60,North,355,10.0,13.0,91,0.00,,,0.01,weatherlink.com 1.10,2013-01-10 14:38:00,
2013-01-10 07:53:00,32.1,30.0,29.60,North,5,9.0,12.0,92,0.00,,,0.01,weatherlink.com 1.10,2013-01-10 14:53:00,
2013-01-10 08:08:00,32.1,30.0,29.60,NNW,347,8.0,15.0,90,0.00,,,0.01,weatherlink.com 1.10,2013-01-10 15:08:00,
2013-01-10 08:23:00,32.1,30.0,29.59,NW,323,3.0,8.0,90,0.00,,,0.01,weatherlink.com 1.10,2013-01-10 15:23:00,
2013-01-10 08:38:00,31.9,30.0,29.60,NNW,340,5.0,7.0,93,0.00,,,0.01,weatherlink.com 1.10,2013-01-10 15:38:00,
2013-01-10 08:54:00,31.6,30.0,29.59,North,5,8.0,11.0,93,0.00,,,0.01,weatherlink.com 1.10,2013-01-10 15:54:00,
2013-01-10 09:09:00,31.9,29.0,29.59,NNE,19,8.0,12.0,89,0.00,,,0.01,weatherlink.com 1.10,2013-01-10 16:09:00,
2013-01-10 09:24:00,32.0,29.0,29.59,NNE,26,10.0,14.0,88,0.00,,,0.01,weatherlink.com 1.10,2013-01-10 16:24:00,
2013-01-10 09:39:00,32.0,29.0,29.60,NNW,333,7.0,16.0,89,0.00,,,0.01,weatherlink.com 1.10,2013-01-10 16:39:00,
2013-01-10 09:54:00,31.5,29.0,29.60,NNW,333,6.0,12.0,91,0.00,,,0.01,weatherlink.com 1.10,2013-01-10 16:54:00,
2013-01-10 10:09:00,31.1,29.0,29.61,NNW,329,9.0,16.0,92,0.00,,,0.01,weatherlink.com 1.10,2013-01-10 17:09:00,
2013-01-10 10:24:00,31.0,29.0,29.61,NNW,347,11.0,16.0,92,0.00,,,0.01,weatherlink.com 1.10,2013-01-10 17:24:00,
2013-01-10 10:39:00,30.8,29.0,29.62,NW,309,6.0,16.0,93,0.00,,,0.01,weatherlink.com 1.10,2013-01-10 17:39:00,
2013-01-10 10:54:00,30.5,29.0,29.61,North,355,9.0,15.0,94,0.00,,,0.01,weatherlink.com 1.10,2013-01-10 17:54:00,
2013-01-10 11:09:00,30.5,29.0,29.61,NNW,347,10.0,14.0,94,0.00,,,0.01,weatherlink.com 1.10,2013-01-10 18:09:00,
2013-01-10 11:24:00,30.7,30.0,29.60,NNW,335,10.0,16.0,95,0.00,,,0.01,weatherlink.com 1.10,2013-01-10 18:24:00,
2013-01-10 11:39:00,30.7,30.0,29.59,North,350,9.0,12.0,95,0.00,,,0.01,weatherlink.com 1.10,2013-01-10 18:39:00,
2013-01-10 11:54:00,30.6,29.0,29.60,North,9,6.0,9.0,95,0.00,,,0.01,weatherlink.com 1.10,2013-01-10 18:54:00,
2013-01-10 12:09:00,30.5,29.0,29.59,NNE,19,9.0,12.0,95,0.00,,,0.01,weatherlink.com 1.10,2013-01-10 19:09:00,
2013-01-10 12:24:00,30.4,29.0,29.59,NNE,18,9.0,12.0,95,0.00,,,0.01,weatherlink.com 1.10,2013-01-10 19:24:00,
2013-01-10 12:39:00,30.4,29.0,29.57,North,350,9.0,14.0,95,0.00,,,0.01,weatherlink.com 1.10,2013-01-10 19:39:00,
2013-01-10 12:54:00,30.4,29.0,29.57,North,5,9.0,13.0,95,0.00,,,0.01,weatherlink.com 1.10,2013-01-10 19:54:00,
2013-01-10 13:09:00,30.2,29.0,29.59,North,350,7.0,14.0,95,0.00,,,0.01,weatherlink.com 1.10,2013-01-10 20:09:00,
2013-01-10 13:24:00,30.0,29.0,29.58,North,9,8.0,14.0,95,0.00,,,0.01,weatherlink.com 1.10,2013-01-10 20:24:00,
2013-01-10 13:54:00,30.0,29.0,29.59,NNW,344,4.0,19.0,95,0.00,,,0.01,weatherlink.com 1.10,2013-01-10 20:54:00,
2013-01-10 14:09:00,30.0,29.0,29.58,North,360,6.0,12.0,95,0.00,,,0.01,weatherlink.com 1.10,2013-01-10 21:09:00,
2013-01-10 14:24:00,29.9,29.0,29.59,NW,319,5.0,7.0,95,0.00,,,0.01,weatherlink.com 1.10,2013-01-10 21:24:00,
2013-01-10 14:39:00,29.9,29.0,29.60,NNE,15,6.0,12.0,96,0.00,,,0.01,weatherlink.com 1.10,2013-01-10 21:39:00,
2013-01-10 14:54:00,30.0,29.0,29.60,North,360,0.0,4.0,96,0.00,,,0.01,weatherlink.com 1.10,2013-01-10 21:54:00,
2013-01-10 15:09:00,29.9,29.0,29.61,NNW,338,6.0,7.0,96,0.00,,,0.01,weatherlink.com 1.10,2013-01-10 22:09:00,
2013-01-10 15:24:00,29.7,29.0,29.61,North,355,6.0,10.0,95,0.00,,,0.01,weatherlink.com 1.10,2013-01-10 22:24:00,
2013-01-10 15:39:00,29.6,29.0,29.61,North,9,3.0,8.0,96,0.00,,,0.01,weatherlink.com 1.10,2013-01-10 22:39:00,
2013-01-10 15:54:00,29.6,28.0,29.60,North,5,7.0,8.0,95,0.00,,,0.01,weatherlink.com 1.10,2013-01-10 22:54:00,
2013-01-10 16:09:00,29.4,28.0,29.60,NNW,343,4.0,7.0,95,0.00,,,0.01,weatherlink.com 1.10,2013-01-10 23:09:00,
2013-01-10 16:24:00,29.4,28.0,29.61,NNW,332,4.0,6.0,96,0.00,,,0.01,weatherlink.com 1.10,2013-01-10 23:24:00,
2013-01-10 16:39:00,29.3,28.0,29.61,North,355,4.0,6.0,96,0.00,,,0.01,weatherlink.com 1.10,2013-01-10 23:39:00,
2013-01-10 16:54:00,29.1,28.0,29.62,NNW,340,5.0,8.0,96,0.00,,,0.01,weatherlink.com 1.10,2013-01-10 23:54:00,
2013-01-10 17:09:00,28.9,28.0,29.62,NW,315,9.0,10.0,96,0.00,,,0.01,weatherlink.com 1.10,2013-01-11 00:09:00,
2013-01-10 17:24:00,28.6,28.0,29.62,NNW,328,5.0,13.0,96,0.00,,,0.01,weatherlink.com 1.10,2013-01-11 00:24:00,
2013-01-10 17:39:00,28.4,27.0,29.63,NW,319,8.0,13.0,96,0.00,,,0.01,weatherlink.com 1.10,2013-01-11 00:39:00,
2013-01-10 17:54:00,28.2,27.0,29.63,NNW,346,10.0,14.0,96,0.00,,,0.01,weatherlink.com 1.10,2013-01-11 00:54:00,
2013-01-10 18:09:00,28.1,27.0,29.64,NNW,334,7.0,11.0,96,0.00,,,0.01,weatherlink.com 1.10,2013-01-11 01:09:00,
2013-01-10 18:25:00,27.7,27.0,29.64,NNW,331,9.0,11.0,96,0.00,,,0.01,weatherlink.com 1.10,2013-01-11 01:25:00,
2013-01-10 18:40:00,27.4,26.0,29.65,NW,321,4.0,9.0,96,0.00,,,0.01,weatherlink.com 1.10,2013-01-11 01:40:00,
2013-01-10 18:55:00,27.2,26.0,29.64,NE,49,8.0,9.0,96,0.00,,,0.01,weatherlink.com 1.10,2013-01-11 01:55:00,
2013-01-10 19:10:00,-999.0,-99.9,29.65,North,-999,-999.0,-999.0,-999,0.00,,,0.01,weatherlink.com 1.10,2013-01-11 02:10:00,
2013-01-10 19:25:00,-999.0,-99.9,29.66,North,-999,-999.0,-999.0,-999,0.00,,,0.01,weatherlink.com 1.10,2013-01-11 02:25:00,
2013-01-10 19:40:00,-999.0,-99.9,29.66,North,-999,-999.0,-999.0,-999,0.00,,,0.01,weatherlink.com 1.10,2013-01-11 02:40:00,
2013-01-10 19:55:00,-999.0,-99.9,29.67,North,-999,-999.0,-999.0,-999,0.00,,,0.01,weatherlink.com 1.10,2013-01-11 02:55:00,
2013-01-10 20:10:00,-999.0,-99.9,29.68,North,-999,-999.0,-999.0,-999,0.00,,,0.01,weatherlink.com 1.10,2013-01-11 03:10:00,
2013-01-10 20:25:00,-999.0,-99.9,29.68,North,-999,-999.0,-999.0,-999,0.00,,,0.01,weatherlink.com 1.10,2013-01-11 03:25:00,
2013-01-10 20:40:00,-999.0,-99.9,29.69,North,-999,-999.0,-999.0,-999,0.00,,,0.01,weatherlink.com 1.10,2013-01-11 03:40:00,
2013-01-10 20:55:00,-999.0,-99.9,29.69,North,-999,-999.0,-999.0,-999,0.00,,,0.01,weatherlink.com 1.10,2013-01-11 03:55:00,
2013-01-10 21:10:00,-999.0,-99.9,29.70,North,-999,-999.0,-999.0,-999,0.00,,,0.01,weatherlink.com 1.10,2013-01-11 04:10:00,
2013-01-10 21:25:00,-999.0,-99.9,29.70,North,-999,-999.0,-999.0,-999,0.00,,,0.01,weatherlink.com 1.10,2013-01-11 04:25:00,
2013-01-10 21:40:00,-999.0,-99.9,29.71,North,-999,-999.0,-999.0,-999,0.00,,,0.01,weatherlink.com 1.10,2013-01-11 04:40:00,
2013-01-10 21:56:00,-999.0,-99.9,29.71,North,-999,-999.0,-999.0,-999,0.00,,,0.01,weatherlink.com 1.10,2013-01-11 04:56:00,
2013-01-10 22:11:00,-999.0,-99.9,29.72,North,-999,-999.0,-999.0,-999,0.00,,,0.01,weatherlink.com 1.10,2013-01-11 05:11:00,
2013-01-10 22:26:00,-999.0,-99.9,29.72,North,-999,-999.0,-999.0,-999,0.00,,,0.01,weatherlink.com 1.10,2013-01-11 05:26:00,
2013-01-10 22:41:00,-999.0,-99.9,29.72,North,-999,-999.0,-999.0,-999,0.00,,,0.01,weatherlink.com 1.10,2013-01-11 05:41:00,
2013-01-10 22:56:00,-999.0,-99.9,29.73,North,-999,-999.0,-999.0,-999,0.00,,,0.01,weatherlink.com 1.10,2013-01-11 05:56:00,
2013-01-10 23:11:00,21.9,20.0,29.74,West,269,1.0,7.0,91,0.00,,,0.01,weatherlink.com 1.10,2013-01-11 06:11:00,
2013-01-10 23:26:00,21.7,20.0,29.75,WNW,293,2.0,4.0,91,0.00,,,0.01,weatherlink.com 1.10,2013-01-11 06:26:00,
2013-01-10 23:41:00,21.6,18.0,29.76,ENE,62,5.0,6.0,85,0.00,,,0.01,weatherlink.com 1.10,2013-01-11 06:41:00,
2013-01-10 23:56:00,20.9,17.0,29.77,NNE,27,0.0,4.0,85,0.00,,,0.01,weatherlink.com 1.10,2013-01-11 06:56:00,